Time;durP1;ratioP1;P1;durP2;ratioP2;P2;SDS_P1;SDS_P2;PMS_P1;PMS_P2;Temp;Humidity;BMP_temperature;BMP_pressure;BME280_temperature;BME280_humidity;BME280_pressure;Samples;Min_cycle;Max_cycle;Signal;HPM_P1;HPM_P2
2021/08/27 00:01:16;;;;;;;4.03;2.13;;;14.60;99.90;;;;;;5127249;27;20553;-36
2021/08/27 00:03:41;;;;;;;3.73;2.27;;;14.60;99.90;;;;;;5108949;27;20187;-37
2021/08/27 00:06:07;;;;;;;4.17;2.37;;;14.60;99.90;;;;;;5126836;27;20194;-37
2021/08/27 00:08:33;;;;;;;4.70;1.80;;;14.50;99.90;;;;;;5126945;27;20218;-37
2021/08/27 00:10:59;;;;;;;2.80;1.87;;;14.50;99.90;;;;;;5115773;27;20226;-36
2021/08/27 00:13:24;;;;;;;5.07;1.33;;;14.50;99.90;;;;;;5088275;27;20208;-36
2021/08/27 00:15:50;;;;;;;4.27;1.50;;;14.50;99.90;;;;;;5126852;27;20640;-36
2021/08/27 00:18:16;;;;;;;7.50;1.83;;;14.50;99.90;;;;;;5091928;27;20187;-36
2021/08/27 00:20:42;;;;;;;7.00;2.10;;;14.50;99.90;;;;;;5126413;27;20198;-36
2021/08/27 00:23:07;;;;;;;3.20;1.60;;;14.50;99.90;;;;;;5127191;27;20208;-36
2021/08/27 00:25:33;;;;;;;5.30;2.37;;;14.50;99.90;;;;;;5117979;27;20191;-37
2021/08/27 00:27:59;;;;;;;3.30;1.70;;;14.50;99.90;;;;;;5120970;27;20189;-36
2021/08/27 00:30:25;;;;;;;3.90;1.50;;;14.50;99.90;;;;;;5108105;27;20187;-36
2021/08/27 00:32:50;;;;;;;7.53;2.17;;;14.50;99.90;;;;;;5108486;27;20264;-37
2021/08/27 00:35:16;;;;;;;5.67;2.70;;;14.50;99.90;;;;;;5127065;27;20251;-36
2021/08/27 00:37:42;;;;;;;8.97;2.27;;;14.50;99.90;;;;;;5126333;27;20259;-37
2021/08/27 00:40:08;;;;;;;5.10;2.10;;;14.50;99.90;;;;;;5121080;28;20275;-38
2021/08/27 00:42:34;;;;;;;3.63;2.00;;;14.40;99.90;;;;;;5105906;28;20183;-36
2021/08/27 00:45:00;;;;;;;4.87;2.10;;;14.50;99.90;;;;;;5117437;28;20409;-36
2021/08/27 00:47:26;;;;;;;4.20;2.00;;;14.40;99.90;;;;;;5086725;28;20849;-37
2021/08/27 00:49:52;;;;;;;6.77;2.20;;;14.30;99.90;;;;;;5126041;28;20633;-36
2021/08/27 00:52:18;;;;;;;5.53;2.17;;;14.30;99.90;;;;;;5108355;28;20432;-36
2021/08/27 00:54:50;;;;;;;3.03;1.83;;;14.30;99.90;;;;;;5087713;28;20183;-36
2021/08/27 00:57:16;;;;;;;4.30;2.00;;;14.20;99.90;;;;;;5099279;28;20294;-37
2021/08/27 00:59:42;;;;;;;8.70;2.00;;;14.20;99.90;;;;;;5121518;28;20496;-36
2021/08/27 01:02:08;;;;;;;3.40;1.73;;;14.10;99.90;;;;;;5087888;28;20182;-37
2021/08/27 01:04:40;;;;;;;4.80;2.00;;;14.10;99.90;;;;;;5117986;28;20489;-36
2021/08/27 01:07:11;;;;;;;5.73;2.20;;;14.00;99.90;;;;;;5128351;27;20417;-37
2021/08/27 01:10:07;;;;;;;5.60;1.80;;;14.00;99.90;;;;;;5091008;28;20539;-37
2021/08/27 01:13:03;;;;;;;3.40;1.70;;;14.00;99.90;;;;;;5106785;27;21010;-36
2021/08/27 01:15:53;;;;;;;4.10;2.10;;;14.00;99.90;;;;;;5130202;27;20412;-36
2021/08/27 01:18:25;;;;;;;4.80;1.97;;;14.10;99.90;;;;;;5112083;27;20440;-36
2021/08/27 01:21:09;;;;;;;6.07;2.07;;;14.10;99.90;;;;;;5130244;27;20503;-37
2021/08/27 01:23:40;;;;;;;3.30;1.80;;;14.10;99.90;;;;;;5130455;27;20412;-36
2021/08/27 01:26:07;;;;;;;5.57;1.77;;;14.20;99.90;;;;;;5118341;27;20436;-37
2021/08/27 01:28:40;;;;;;;5.73;2.33;;;14.10;99.90;;;;;;5111275;27;20949;-37
2021/08/27 01:31:08;;;;;;;5.50;1.73;;;14.10;99.90;;;;;;5111266;27;20405;-36
2021/08/27 01:33:37;;;;;;;10.17;3.20;;;14.20;99.90;;;;;;5111623;27;20413;-37
2021/08/27 01:36:05;;;;;;;5.20;2.50;;;14.10;99.90;;;;;;5129591;27;20927;-36
2021/08/27 01:38:37;;;;;;;3.30;1.97;;;14.10;99.90;;;;;;5129964;27;20417;-36
2021/08/27 01:41:07;;;;;;;6.60;2.90;;;14.10;99.90;;;;;;5086333;27;20888;-37
2021/08/27 01:43:34;;;;;;;5.13;2.23;;;14.10;99.90;;;;;;5109424;27;20537;-37
2021/08/27 01:46:02;;;;;;;4.20;2.10;;;14.00;99.90;;;;;;5127898;27;20432;-36
2021/08/27 01:48:31;;;;;;;4.93;2.20;;;14.00;99.90;;;;;;5129940;27;20500;-36
2021/08/27 01:50:58;;;;;;;3.60;1.90;;;14.00;99.90;;;;;;5110488;27;20413;-36
2021/08/27 01:53:25;;;;;;;4.60;1.80;;;14.00;99.90;;;;;;5090925;28;20418;-36
2021/08/27 01:55:55;;;;;;;7.67;2.43;;;14.10;99.90;;;;;;5120783;27;20456;-36
2021/08/27 01:58:22;;;;;;;5.20;2.33;;;14.10;99.90;;;;;;5126239;27;20813;-36
2021/08/27 02:00:49;;;;;;;6.10;2.43;;;14.00;99.90;;;;;;5091269;27;20421;-36
2021/08/27 02:03:15;;;;;;;5.67;2.40;;;14.10;99.90;;;;;;5111287;27;20409;-37
2021/08/27 02:05:42;;;;;;;4.40;2.23;;;14.10;99.90;;;;;;5129501;27;20427;-37
2021/08/27 02:08:08;;;;;;;12.57;3.03;;;14.10;99.90;;;;;;5090287;28;20478;-37
2021/08/27 02:10:34;;;;;;;3.97;2.60;;;14.10;99.90;;;;;;5124221;27;20429;-37
2021/08/27 02:13:00;;;;;;;4.30;2.60;;;14.00;99.90;;;;;;5122589;27;20413;-37
2021/08/27 02:15:26;;;;;;;4.60;2.47;;;14.00;99.90;;;;;;5110976;27;20524;-36
2021/08/27 02:17:52;;;;;;;4.30;2.80;;;14.00;99.90;;;;;;5110135;28;20210;-36
2021/08/27 02:20:18;;;;;;;4.80;2.20;;;14.00;99.90;;;;;;5089099;28;20422;-37
2021/08/27 02:22:49;;;;;;;5.70;2.70;;;14.00;99.90;;;;;;5120742;27;20416;-37
2021/08/27 02:25:17;;;;;;;5.90;2.50;;;14.00;99.90;;;;;;5129173;27;20183;-36
2021/08/27 02:27:45;;;;;;;5.93;2.50;;;13.90;99.90;;;;;;5119343;27;20421;-36
2021/08/27 02:30:13;;;;;;;7.10;2.97;;;14.00;99.90;;;;;;5105098;27;20446;-37
2021/08/27 02:32:41;;;;;;;4.80;2.57;;;13.90;99.90;;;;;;5128877;27;20950;-36
2021/08/27 02:35:09;;;;;;;4.30;2.43;;;13.90;99.90;;;;;;5128735;27;20679;-36
2021/08/27 02:37:38;;;;;;;6.47;2.50;;;13.90;99.90;;;;;;5090680;27;20460;-36
2021/08/27 02:40:05;;;;;;;6.33;2.50;;;13.90;99.90;;;;;;5116253;27;20416;-36
2021/08/27 02:42:31;;;;;;;4.57;1.83;;;13.90;99.90;;;;;;5092277;27;20790;-37
2021/08/27 02:44:59;;;;;;;7.63;2.37;;;13.90;99.90;;;;;;5109977;27;20938;-36
2021/08/27 02:47:25;;;;;;;4.17;2.10;;;13.90;99.90;;;;;;5128729;27;20440;-36
2021/08/27 02:49:52;;;;;;;7.67;2.50;;;13.90;99.90;;;;;;5127853;27;20416;-36
2021/08/27 02:52:37;;;;;;;5.63;2.73;;;13.90;99.90;;;;;;5128740;27;20429;-36
2021/08/27 02:55:22;;;;;;;6.93;2.87;;;13.90;99.90;;;;;;5090906;28;20927;-36
2021/08/27 02:58:07;;;;;;;5.90;2.70;;;13.90;99.90;;;;;;5119634;27;20831;-37
2021/08/27 03:00:50;;;;;;;4.90;2.60;;;13.90;99.90;;;;;;5108960;27;20413;-37
2021/08/27 03:03:17;;;;;;;6.60;2.20;;;13.90;99.90;;;;;;5110370;27;20416;-36
2021/08/27 03:05:44;;;;;;;5.27;2.63;;;13.90;99.90;;;;;;5128774;27;20416;-36
2021/08/27 03:08:15;;;;;;;5.23;2.40;;;14.00;99.90;;;;;;5110017;27;20439;-37
2021/08/27 03:10:55;;;;;;;4.03;2.10;;;14.00;99.90;;;;;;5127002;27;20825;-36
2021/08/27 03:13:49;;;;;;;4.43;2.20;;;14.00;99.90;;;;;;5120279;27;20423;-36
2021/08/27 03:16:18;;;;;;;4.00;2.57;;;13.90;99.90;;;;;;5111769;27;20484;-37
2021/08/27 03:18:51;;;;;;;4.77;2.43;;;13.90;99.90;;;;;;5088759;28;20463;-36
2021/08/27 03:21:48;;;;;;;4.97;2.50;;;14.00;99.90;;;;;;5106636;27;20428;-36
2021/08/27 03:24:22;;;;;;;3.40;2.00;;;14.00;99.90;;;;;;5089260;27;20420;-36
2021/08/27 03:26:55;;;;;;;4.57;1.83;;;13.90;99.90;;;;;;5123592;27;20425;-36
2021/08/27 03:29:22;;;;;;;6.50;2.10;;;13.90;99.90;;;;;;5104594;27;20420;-36
2021/08/27 03:31:49;;;;;;;8.30;2.57;;;13.90;99.90;;;;;;5127720;27;20423;-36
2021/08/27 03:34:15;;;;;;;4.80;2.57;;;13.90;99.90;;;;;;5127963;27;20508;-36
2021/08/27 03:36:42;;;;;;;4.10;2.03;;;13.90;99.90;;;;;;5127802;27;20452;-36
2021/08/27 03:39:08;;;;;;;3.87;2.20;;;13.90;99.90;;;;;;5108851;27;20947;-36
2021/08/27 03:41:36;;;;;;;5.67;2.27;;;13.90;99.90;;;;;;5122319;27;20457;-37
2021/08/27 03:44:03;;;;;;;4.23;2.13;;;13.90;99.90;;;;;;5089250;27;20416;-37
2021/08/27 03:46:29;;;;;;;7.70;2.50;;;13.90;99.90;;;;;;5127256;27;20424;-36
2021/08/27 03:48:56;;;;;;;6.90;2.67;;;13.90;99.90;;;;;;5108586;27;20424;-36
2021/08/27 03:51:23;;;;;;;3.87;2.23;;;13.90;99.90;;;;;;5109099;27;20460;-37
2021/08/27 03:53:49;;;;;;;6.20;2.30;;;13.90;99.90;;;;;;5127592;27;20439;-37
2021/08/27 03:56:15;;;;;;;5.20;2.20;;;14.00;99.90;;;;;;5124652;27;20454;-36
2021/08/27 03:58:43;;;;;;;5.57;2.50;;;13.90;99.90;;;;;;5100822;27;20428;-36
2021/08/27 04:01:09;;;;;;;4.70;1.90;;;13.90;99.90;;;;;;5127312;27;20440;-36
2021/08/27 04:03:35;;;;;;;8.90;2.20;;;13.90;99.90;;;;;;5108715;27;20464;-36
2021/08/27 04:06:04;;;;;;;5.03;2.37;;;13.90;99.90;;;;;;5127456;27;20421;-36
2021/08/27 04:08:33;;;;;;;7.93;2.60;;;13.90;99.90;;;;;;5127171;27;20448;-36
2021/08/27 04:10:59;;;;;;;4.13;2.10;;;14.00;99.90;;;;;;5070978;28;20787;-36
2021/08/27 04:13:25;;;;;;;3.30;1.80;;;14.00;99.90;;;;;;5099321;27;20519;-36
2021/08/27 04:15:50;;;;;;;5.93;2.13;;;14.00;99.90;;;;;;5105112;27;20174;-36
2021/08/27 04:18:16;;;;;;;6.07;3.07;;;14.00;99.90;;;;;;5127083;27;20219;-36
2021/08/27 04:20:42;;;;;;;5.23;2.43;;;14.00;99.90;;;;;;5126440;27;20175;-40
2021/08/27 04:23:07;;;;;;;4.57;2.60;;;14.00;99.90;;;;;;5089096;28;20244;-36
2021/08/27 04:25:33;;;;;;;4.60;2.37;;;14.00;99.90;;;;;;5126675;27;20426;-36
2021/08/27 04:27:59;;;;;;;4.93;2.47;;;14.00;99.90;;;;;;5115970;27;20179;-37
2021/08/27 04:30:25;;;;;;;8.50;2.93;;;14.00;99.90;;;;;;5118289;27;20854;-36
2021/08/27 04:32:50;;;;;;;3.87;2.30;;;14.00;99.90;;;;;;5108502;27;20191;-36
2021/08/27 04:35:16;;;;;;;3.13;2.30;;;14.00;99.90;;;;;;5108511;27;20565;-36
2021/08/27 04:37:42;;;;;;;4.47;2.43;;;14.00;99.90;;;;;;5108289;28;20664;-37
2021/08/27 04:40:08;;;;;;;4.27;2.33;;;14.00;99.90;;;;;;5086922;28;20187;-36
2021/08/27 04:42:34;;;;;;;3.30;2.20;;;14.00;99.90;;;;;;5092479;28;20188;-37
2021/08/27 04:44:59;;;;;;;4.83;2.47;;;14.00;99.90;;;;;;5101516;28;20409;-37
2021/08/27 04:47:25;;;;;;;4.90;2.47;;;14.00;99.90;;;;;;5125955;28;20551;-39
2021/08/27 04:49:51;;;;;;;5.00;3.10;;;14.10;99.90;;;;;;5107798;28;20194;-36
2021/08/27 04:52:16;;;;;;;3.43;2.80;;;14.00;99.90;;;;;;5126772;28;20191;-36
2021/08/27 04:54:42;;;;;;;5.13;3.03;;;14.10;99.90;;;;;;5126946;28;20289;-37
2021/08/27 04:57:08;;;;;;;5.60;3.93;;;14.10;99.90;;;;;;5102846;28;20681;-38
2021/08/27 04:59:34;;;;;;;5.37;3.47;;;14.00;99.90;;;;;;5116447;28;20327;-37
2021/08/27 05:01:59;;;;;;;6.77;3.93;;;14.00;99.90;;;;;;5125938;28;20262;-36
2021/08/27 05:04:27;;;;;;;5.53;4.90;;;14.10;99.90;;;;;;5126406;28;20186;-36
2021/08/27 05:06:54;;;;;;;8.70;5.40;;;14.10;99.90;;;;;;5126428;28;20179;-37
2021/08/27 05:09:19;;;;;;;6.23;4.20;;;14.10;99.90;;;;;;5125072;28;20488;-36
2021/08/27 05:11:46;;;;;;;6.87;3.13;;;14.10;99.90;;;;;;5123595;28;20815;-37
2021/08/27 05:14:12;;;;;;;3.80;2.90;;;14.10;99.90;;;;;;5117845;28;20220;-36
2021/08/27 05:16:38;;;;;;;8.53;3.00;;;14.10;99.90;;;;;;5125676;28;20683;-37
2021/08/27 05:19:04;;;;;;;4.37;2.87;;;14.10;99.90;;;;;;5125541;28;20814;-37
2021/08/27 05:21:29;;;;;;;4.07;2.07;;;14.00;99.90;;;;;;5125690;28;20436;-36
2021/08/27 05:23:55;;;;;;;5.13;2.67;;;14.10;99.90;;;;;;5126009;28;20957;-36
2021/08/27 05:26:21;;;;;;;5.77;3.50;;;14.10;99.90;;;;;;5124784;28;20588;-36
2021/08/27 05:28:47;;;;;;;8.40;3.37;;;14.10;99.90;;;;;;5118381;28;20191;-36
2021/08/27 05:31:15;;;;;;;3.43;2.60;;;14.10;99.90;;;;;;5123454;28;20420;-36
2021/08/27 05:33:41;;;;;;;5.57;2.20;;;14.20;99.90;;;;;;5111221;28;21157;-36
2021/08/27 05:36:06;;;;;;;5.87;2.30;;;14.20;99.90;;;;;;5125676;28;20423;-36
2021/08/27 05:38:32;;;;;;;6.00;2.97;;;14.20;99.90;;;;;;5123660;28;20518;-36
2021/08/27 05:40:58;;;;;;;6.23;2.53;;;14.20;99.90;;;;;;5125766;28;20468;-36
2021/08/27 05:43:25;;;;;;;7.03;2.83;;;14.20;99.90;;;;;;5115702;28;20207;-36
2021/08/27 05:45:51;;;;;;;4.57;3.00;;;14.20;99.90;;;;;;5123012;28;20796;-37
2021/08/27 05:48:16;;;;;;;6.87;4.03;;;14.20;99.90;;;;;;5125276;28;20417;-36
2021/08/27 05:50:42;;;;;;;4.77;2.80;;;14.30;99.90;;;;;;5125367;28;20447;-36
2021/08/27 05:53:08;;;;;;;5.73;3.40;;;14.30;99.90;;;;;;5127788;27;20278;-36
2021/08/27 05:55:34;;;;;;;3.40;2.20;;;14.30;99.90;;;;;;5129855;27;20456;-37
2021/08/27 05:58:00;;;;;;;6.47;3.60;;;14.30;99.90;;;;;;5123397;27;20532;-37
2021/08/27 06:00:25;;;;;;;4.90;2.77;;;14.40;99.90;;;;;;5107523;27;20544;-36
2021/08/27 06:02:51;;;;;;;4.17;2.57;;;14.40;99.90;;;;;;5129462;27;20187;-37
2021/08/27 06:05:20;;;;;;;7.43;3.00;;;14.40;99.90;;;;;;5129418;27;20421;-36
2021/08/27 06:07:45;;;;;;;5.83;2.67;;;14.40;99.90;;;;;;5129080;27;20256;-37
2021/08/27 06:10:11;;;;;;;8.60;2.93;;;14.50;99.90;;;;;;5128880;27;20465;-37
2021/08/27 06:12:38;;;;;;;6.17;3.67;;;14.50;99.90;;;;;;5124687;27;20561;-37
2021/08/27 06:15:05;;;;;;;5.90;2.87;;;14.50;99.90;;;;;;5124160;27;20842;-36
2021/08/27 06:17:31;;;;;;;5.00;2.80;;;14.50;99.90;;;;;;5127007;27;20812;-37
2021/08/27 06:19:57;;;;;;;5.00;2.90;;;14.50;99.90;;;;;;5127473;27;20427;-36
2021/08/27 06:22:22;;;;;;;6.07;2.97;;;14.50;99.90;;;;;;5127706;27;20190;-36
2021/08/27 06:24:48;;;;;;;7.27;2.70;;;14.60;99.90;;;;;;5126514;27;20210;-37
2021/08/27 06:27:14;;;;;;;7.73;3.20;;;14.60;99.90;;;;;;5125200;27;20194;-36
2021/08/27 06:29:40;;;;;;;5.00;3.00;;;14.60;99.90;;;;;;5123093;27;20517;-36
2021/08/27 06:32:06;;;;;;;4.43;3.10;;;14.60;99.90;;;;;;5130093;27;20504;-36
2021/08/27 06:34:32;;;;;;;7.63;3.90;;;14.60;99.90;;;;;;5126438;27;20189;-36
2021/08/27 06:36:58;;;;;;;6.80;4.07;;;14.60;99.90;;;;;;5129718;27;21046;-36
2021/08/27 06:39:23;;;;;;;7.43;3.93;;;14.70;99.90;;;;;;5126394;27;20704;-36
2021/08/27 06:41:49;;;;;;;3.70;3.17;;;14.70;99.90;;;;;;5128472;27;20600;-37
2021/08/27 06:44:15;;;;;;;12.73;4.30;;;14.70;99.90;;;;;;5118594;27;20222;-36
2021/08/27 06:46:43;;;;;;;4.50;3.17;;;14.80;99.90;;;;;;5128215;27;20557;-36
2021/08/27 06:49:10;;;;;;;5.90;3.60;;;14.80;99.90;;;;;;5128178;27;20421;-36
2021/08/27 06:51:35;;;;;;;4.73;3.20;;;14.80;99.90;;;;;;5128167;27;20558;-36
2021/08/27 06:54:01;;;;;;;4.20;3.17;;;14.90;99.90;;;;;;5128523;27;20503;-37
2021/08/27 06:56:27;;;;;;;5.87;2.93;;;14.90;99.90;;;;;;5128063;27;20225;-37
2021/08/27 06:58:52;;;;;;;4.57;3.20;;;14.90;99.90;;;;;;5099528;27;20482;-37
2021/08/27 07:01:18;;;;;;;4.23;3.53;;;14.90;99.90;;;;;;5127881;27;20581;-37
2021/08/27 07:03:44;;;;;;;4.47;2.80;;;15.00;99.90;;;;;;5111165;27;20203;-36
2021/08/27 07:06:11;;;;;;;4.40;2.70;;;15.00;99.90;;;;;;5109296;27;20192;-36
2021/08/27 07:08:37;;;;;;;4.70;3.07;;;15.00;99.90;;;;;;5128362;27;20211;-36
2021/08/27 07:11:02;;;;;;;6.10;3.47;;;15.00;99.90;;;;;;5127770;27;20876;-37
2021/08/27 07:13:28;;;;;;;5.47;3.13;;;15.10;99.90;;;;;;5122365;27;20649;-37
2021/08/27 07:15:56;;;;;;;4.97;3.37;;;15.10;99.90;;;;;;5121018;27;20183;-36
2021/08/27 07:18:22;;;;;;;7.13;3.50;;;15.20;99.90;;;;;;5127570;27;20290;-36
2021/08/27 07:20:50;;;;;;;3.70;3.00;;;15.20;99.90;;;;;;5126786;27;20495;-37
2021/08/27 07:23:16;;;;;;;5.27;3.40;;;15.20;99.90;;;;;;5125095;27;20509;-37
2021/08/27 07:25:42;;;;;;;5.33;3.87;;;15.30;99.90;;;;;;5127474;27;20499;-36
2021/08/27 07:28:08;;;;;;;6.03;3.40;;;15.30;99.90;;;;;;5118616;27;20244;-36
2021/08/27 07:30:34;;;;;;;6.07;3.80;;;15.30;99.90;;;;;;5125838;27;20769;-36
2021/08/27 07:33:00;;;;;;;5.10;2.10;;;15.40;99.90;;;;;;5127717;27;20226;-37
2021/08/27 07:35:25;;;;;;;7.00;2.80;;;15.40;99.90;;;;;;5109512;27;20467;-36
2021/08/27 07:37:51;;;;;;;6.17;3.00;;;15.40;99.90;;;;;;5109356;27;20227;-37
2021/08/27 07:40:17;;;;;;;4.57;2.00;;;15.40;99.90;;;;;;5108869;27;20598;-37
2021/08/27 07:42:43;;;;;;;7.13;3.20;;;15.50;99.90;;;;;;5126160;27;20175;-37
2021/08/27 07:45:10;;;;;;;7.23;2.63;;;15.50;99.90;;;;;;5120061;27;20461;-37
2021/08/27 07:47:36;;;;;;;6.03;3.40;;;15.50;99.90;;;;;;5126817;27;20868;-37
2021/08/27 07:50:03;;;;;;;3.40;2.30;;;15.50;99.90;;;;;;5126954;27;20432;-37
2021/08/27 07:52:29;;;;;;;5.07;2.60;;;15.50;99.90;;;;;;5127278;27;20680;-36
2021/08/27 07:54:55;;;;;;;7.13;2.60;;;15.50;99.90;;;;;;5127182;27;20511;-36
2021/08/27 07:57:21;;;;;;;4.73;2.97;;;15.60;99.90;;;;;;5127008;27;20207;-36
2021/08/27 07:59:46;;;;;;;5.87;3.20;;;15.60;99.90;;;;;;5115591;27;20189;-36
2021/08/27 08:02:14;;;;;;;7.80;3.00;;;15.70;99.90;;;;;;5124038;27;20184;-37
2021/08/27 08:04:40;;;;;;;5.47;3.90;;;15.70;99.90;;;;;;5126928;27;20227;-37
2021/08/27 08:07:06;;;;;;;9.50;4.60;;;15.70;99.90;;;;;;5126914;27;20961;-36
2021/08/27 08:09:31;;;;;;;5.90;3.77;;;15.70;99.90;;;;;;5126104;27;20440;-36
2021/08/27 08:11:57;;;;;;;6.83;4.53;;;15.80;99.90;;;;;;5108577;27;20194;-36
2021/08/27 08:14:23;;;;;;;7.60;4.50;;;15.90;99.90;;;;;;5113222;27;20191;-36
2021/08/27 08:16:49;;;;;;;6.20;4.30;;;15.90;99.90;;;;;;5125427;27;20246;-37
2021/08/27 08:19:14;;;;;;;6.63;4.37;;;16.00;99.90;;;;;;5107732;27;20676;-36
2021/08/27 08:21:40;;;;;;;8.77;4.43;;;16.00;99.90;;;;;;5125491;27;20183;-37
2021/08/27 08:24:06;;;;;;;7.83;4.63;;;16.10;99.90;;;;;;5126954;27;20440;-36
2021/08/27 08:26:32;;;;;;;6.67;3.73;;;16.20;99.90;;;;;;5124133;27;20256;-36
2021/08/27 08:28:57;;;;;;;9.83;4.07;;;16.30;99.90;;;;;;5117609;27;20219;-37
2021/08/27 08:31:23;;;;;;;5.77;3.93;;;16.30;99.90;;;;;;5123453;27;20475;-36
2021/08/27 08:33:52;;;;;;;6.97;4.10;;;16.40;99.90;;;;;;5126924;27;20190;-37
2021/08/27 08:36:18;;;;;;;5.60;3.83;;;16.40;99.90;;;;;;5126728;27;20827;-36
2021/08/27 08:38:45;;;;;;;9.53;3.77;;;16.40;99.90;;;;;;5126394;27;20420;-37
2021/08/27 08:41:12;;;;;;;14.17;4.23;;;16.40;99.90;;;;;;5126449;28;20417;-36
2021/08/27 08:43:38;;;;;;;8.33;3.53;;;16.50;99.90;;;;;;5123295;28;20555;-36
2021/08/27 08:46:04;;;;;;;4.63;3.17;;;16.50;99.90;;;;;;5121500;28;20507;-37
2021/08/27 08:48:31;;;;;;;4.03;2.93;;;16.50;99.90;;;;;;5126872;28;20235;-36
2021/08/27 08:50:59;;;;;;;5.93;3.33;;;16.50;99.90;;;;;;5125760;28;20828;-37
2021/08/27 08:53:26;;;;;;;4.97;2.80;;;16.50;99.90;;;;;;5108181;28;20512;-36
2021/08/27 08:55:52;;;;;;;5.90;2.70;;;16.60;99.90;;;;;;5126244;28;20495;-36
2021/08/27 08:58:18;;;;;;;4.70;2.93;;;16.60;99.90;;;;;;5124537;28;21081;-36
2021/08/27 09:00:45;;;;;;;6.07;2.60;;;16.70;99.90;;;;;;5118006;28;20416;-36
2021/08/27 09:03:10;;;;;;;5.40;2.23;;;16.80;99.90;;;;;;5120816;28;20423;-36
2021/08/27 09:05:43;;;;;;;4.73;2.10;;;16.90;99.90;;;;;;5126406;28;20424;-36
2021/08/27 09:08:09;;;;;;;4.17;2.73;;;16.90;99.90;;;;;;5126315;28;20613;-36
2021/08/27 09:10:42;;;;;;;7.17;2.50;;;16.90;99.90;;;;;;5125861;28;20511;-36
2021/08/27 09:13:08;;;;;;;4.40;2.33;;;16.90;99.90;;;;;;5125764;28;20186;-36
2021/08/27 09:15:34;;;;;;;5.13;2.10;;;16.80;99.90;;;;;;5123855;28;20436;-37
2021/08/27 09:18:05;;;;;;;5.37;2.37;;;16.80;99.90;;;;;;5116920;28;20667;-38
2021/08/27 09:20:31;;;;;;;7.40;2.17;;;16.80;99.90;;;;;;5112881;28;20515;-36
2021/08/27 09:22:59;;;;;;;4.87;2.43;;;16.80;99.90;;;;;;5126355;28;20465;-37
2021/08/27 09:25:31;;;;;;;3.77;2.17;;;16.90;99.90;;;;;;5126174;28;20413;-36
2021/08/27 09:28:09;;;;;;;3.40;1.90;;;16.90;99.90;;;;;;5125953;27;20420;-36
2021/08/27 09:30:47;;;;;;;4.23;2.00;;;16.90;99.90;;;;;;5112191;27;20425;-36
2021/08/27 09:33:21;;;;;;;5.00;2.10;;;16.90;99.90;;;;;;5124913;27;20417;-37
2021/08/27 09:36:13;;;;;;;7.57;2.27;;;16.90;99.90;;;;;;5109591;28;20507;-36
2021/08/27 09:38:40;;;;;;;3.50;1.67;;;16.90;99.90;;;;;;5094135;28;20520;-36
2021/08/27 09:41:13;;;;;;;3.90;2.10;;;17.00;99.90;;;;;;5126713;27;20412;-36
2021/08/27 09:43:52;;;;;;;3.83;2.27;;;17.00;99.90;;;;;;5127648;27;20462;-37
2021/08/27 09:46:42;;;;;;;6.10;2.80;;;16.90;99.90;;;;;;5118160;27;20499;-37
2021/08/27 09:49:29;;;;;;;4.67;2.77;;;16.90;99.90;;;;;;5124974;27;20427;-36
2021/08/27 09:52:09;;;;;;;8.00;3.87;;;16.90;99.90;;;;;;5129736;27;20750;-36
2021/08/27 09:54:40;;;;;;;4.37;2.60;;;16.90;99.90;;;;;;5129581;27;20531;-37
2021/08/27 09:57:08;;;;;;;4.20;2.80;;;16.90;99.90;;;;;;5129475;27;20680;-36
2021/08/27 09:59:43;;;;;;;6.97;2.70;;;16.90;99.90;;;;;;5121173;27;20432;-37
2021/08/27 10:02:16;;;;;;;6.40;2.53;;;17.00;99.90;;;;;;5125676;27;20838;-37
2021/08/27 10:04:59;;;;;;;4.30;2.67;;;17.10;99.90;;;;;;5110925;27;20918;-36
2021/08/27 10:07:39;;;;;;;5.47;2.60;;;17.20;99.90;;;;;;5112098;27;20431;-36
2021/08/27 10:10:11;;;;;;;4.27;2.83;;;17.30;99.90;;;;;;5128713;27;20421;-36
2021/08/27 10:12:39;;;;;;;5.03;2.73;;;17.30;99.90;;;;;;5110993;27;20412;-37
2021/08/27 10:15:07;;;;;;;3.70;2.37;;;17.30;99.90;;;;;;5115190;27;20538;-37
2021/08/27 10:17:35;;;;;;;9.23;3.03;;;17.30;99.90;;;;;;5127180;27;20501;-36
2021/08/27 10:20:06;;;;;;;5.57;2.20;;;17.30;99.90;;;;;;5127907;27;20447;-36
2021/08/27 10:22:32;;;;;;;4.70;1.67;;;17.30;99.90;;;;;;5129473;27;20420;-37
2021/08/27 10:25:03;;;;;;;4.43;2.00;;;17.30;99.90;;;;;;5129114;27;20424;-36
2021/08/27 10:27:28;;;;;;;6.73;2.20;;;17.30;99.90;;;;;;5127789;27;20191;-37
2021/08/27 10:29:56;;;;;;;3.63;1.73;;;17.40;99.90;;;;;;5120651;27;20426;-36
2021/08/27 10:32:39;;;;;;;4.03;2.03;;;17.40;99.90;;;;;;5125199;27;20194;-36
2021/08/27 10:35:34;;;;;;;6.73;1.70;;;17.40;99.90;;;;;;5124826;27;20413;-36
2021/08/27 10:38:00;;;;;;;4.33;2.30;;;17.50;99.90;;;;;;5103766;27;20468;-37
2021/08/27 10:40:29;;;;;;;6.57;1.90;;;17.50;99.90;;;;;;5108302;27;21037;-36
2021/08/27 10:43:00;;;;;;;2.23;1.50;;;17.60;99.90;;;;;;5128842;27;20420;-36
2021/08/27 10:45:45;;;;;;;7.10;2.30;;;17.70;99.90;;;;;;5118219;27;20795;-36
2021/08/27 10:48:15;;;;;;;2.07;1.53;;;17.70;99.90;;;;;;5125416;27;20989;-36
2021/08/27 10:50:46;;;;;;;5.50;1.80;;;17.80;99.90;;;;;;5127899;27;20915;-37
2021/08/27 10:53:37;;;;;;;4.70;1.57;;;17.90;99.90;;;;;;5128516;27;20512;-36
2021/08/27 10:56:03;;;;;;;3.30;2.30;;;18.00;99.90;;;;;;5127995;27;20420;-36
2021/08/27 10:58:52;;;;;;;2.47;1.33;;;18.20;99.90;;;;;;5128214;27;20460;-36
2021/08/27 11:01:27;;;;;;;3.50;1.50;;;18.30;99.90;;;;;;5117281;27;20269;-37
2021/08/27 11:04:16;;;;;;;3.53;1.40;;;18.30;99.90;;;;;;5125199;27;20585;-36
2021/08/27 11:06:51;;;;;;;1.40;1.20;;;18.30;99.90;;;;;;5125341;27;20425;-36
2021/08/27 11:09:34;;;;;;;1.07;0.90;;;18.30;99.90;;;;;;5127100;27;20882;-37
2021/08/27 11:12:14;;;;;;;2.80;1.63;;;18.30;99.90;;;;;;5110218;27;20428;-36
2021/08/27 11:14:47;;;;;;;3.87;2.07;;;18.20;99.90;;;;;;5117288;27;20438;-37
2021/08/27 11:17:13;;;;;;;2.97;1.57;;;18.20;99.90;;;;;;5116094;27;20500;-36
2021/08/27 11:19:45;;;;;;;4.73;2.10;;;18.20;99.90;;;;;;5126516;27;20464;-37
2021/08/27 11:22:11;;;;;;;4.97;1.90;;;18.30;99.90;;;;;;5116905;27;20421;-37
2021/08/27 11:25:03;;;;;;;2.43;1.60;;;18.40;99.90;;;;;;5127623;27;20409;-37
2021/08/27 11:27:29;;;;;;;7.23;1.80;;;18.50;99.90;;;;;;5126214;27;20191;-37
2021/08/27 11:29:58;;;;;;;3.47;1.80;;;18.50;99.90;;;;;;5122739;27;20450;-36
2021/08/27 11:32:27;;;;;;;3.50;2.20;;;18.60;99.90;;;;;;5123687;27;20945;-36
2021/08/27 11:35:01;;;;;;;2.00;1.33;;;18.60;99.90;;;;;;5121141;27;20416;-36
2021/08/27 11:37:31;;;;;;;4.77;1.70;;;18.60;99.90;;;;;;5109041;27;20598;-37
2021/08/27 11:39:57;;;;;;;3.17;1.93;;;18.60;99.90;;;;;;5122986;27;20425;-37
2021/08/27 11:42:23;;;;;;;2.27;1.20;;;18.60;99.90;;;;;;5124057;27;20850;-37
2021/08/27 11:45:18;;;;;;;4.33;1.53;;;18.60;99.90;;;;;;5126849;27;20444;-36
2021/08/27 11:47:48;;;;;;;3.37;1.40;;;18.70;99.90;;;;;;5106476;27;20616;-36
2021/08/27 11:50:23;;;;;;;1.93;1.50;;;18.70;99.90;;;;;;5115403;27;20926;-37
2021/08/27 11:52:50;;;;;;;3.63;1.90;;;18.70;99.90;;;;;;5118001;27;20443;-37
2021/08/27 11:55:16;;;;;;;3.30;1.63;;;18.70;99.90;;;;;;5120536;27;20441;-36
2021/08/27 11:57:53;;;;;;;2.60;1.80;;;18.60;99.90;;;;;;5113132;27;20463;-36
2021/08/27 12:00:24;;;;;;;1.90;1.47;;;18.50;99.90;;;;;;5120516;27;20776;-37
2021/08/27 12:02:54;;;;;;;3.63;1.30;;;18.50;99.90;;;;;;5118803;27;20552;-36
2021/08/27 12:05:20;;;;;;;2.90;1.60;;;18.40;99.90;;;;;;5122825;27;20416;-36
2021/08/27 12:08:17;;;;;;;2.47;1.83;;;18.40;99.90;;;;;;5126949;27;20822;-36
2021/08/27 12:10:44;;;;;;;2.73;1.70;;;18.30;99.90;;;;;;5109406;27;20798;-37
2021/08/27 12:13:11;;;;;;;3.87;1.50;;;18.30;99.90;;;;;;5126332;27;20417;-36
2021/08/27 12:15:43;;;;;;;6.07;2.00;;;18.40;99.90;;;;;;5107153;27;20498;-37
2021/08/27 12:18:11;;;;;;;2.23;1.70;;;18.40;99.90;;;;;;5124287;27;20804;-36
2021/08/27 12:20:39;;;;;;;3.10;1.50;;;18.40;99.90;;;;;;5125819;27;20826;-36
2021/08/27 12:23:16;;;;;;;4.17;1.70;;;18.30;99.90;;;;;;5124060;27;20966;-37
2021/08/27 12:26:07;;;;;;;3.90;1.77;;;18.30;99.90;;;;;;5106518;28;20566;-37
2021/08/27 12:28:38;;;;;;;3.47;2.13;;;18.20;99.90;;;;;;5113147;27;20817;-36
2021/08/27 12:31:05;;;;;;;5.70;1.60;;;18.20;99.90;;;;;;5123118;27;20459;-37
2021/08/27 12:33:38;;;;;;;2.10;1.10;;;18.20;99.90;;;;;;5126164;27;20420;-36
2021/08/27 12:36:06;;;;;;;3.13;1.60;;;18.20;99.90;;;;;;5126431;27;20926;-36
2021/08/27 12:38:32;;;;;;;2.60;1.70;;;18.30;99.90;;;;;;5126122;27;20988;-36
2021/08/27 12:41:14;;;;;;;3.07;1.33;;;18.30;99.90;;;;;;5125483;27;21059;-36
2021/08/27 12:43:41;;;;;;;4.57;1.87;;;18.40;99.90;;;;;;5126481;28;20417;-36
2021/08/27 12:46:07;;;;;;;3.07;1.57;;;18.40;99.90;;;;;;5119510;28;20805;-36
2021/08/27 12:48:34;;;;;;;3.30;1.30;;;18.50;99.90;;;;;;5124356;28;20589;-36
2021/08/27 12:51:03;;;;;;;2.60;1.47;;;18.40;99.90;;;;;;5116870;27;20199;-37
2021/08/27 12:53:32;;;;;;;2.13;1.40;;;18.40;99.90;;;;;;5111885;27;20846;-36
2021/08/27 12:56:23;;;;;;;2.30;1.30;;;18.50;99.90;;;;;;5117713;28;20481;-36